sensor_id;sensor_type;location;lat;lon;timestamp;pressure;altitude;pressure_sealevel;temperature;humidity
9281;BME280;4679;47.966;7.958;2023-02-04T07:47:10;98696.75;;;5.99;90.21
9281;BME280;4679;47.966;7.958;2023-02-04T07:49:12;98694.94;;;5.99;91.27
9281;BME280;4679;47.966;7.958;2023-02-04T07:51:14;98705.31;;;6.01;91.32
9281;BME280;4679;47.966;7.958;2023-02-04T07:53:15;98705.31;;;6.01;90.10
9281;BME280;4679;47.966;7.958;2023-02-04T07:55:17;98707.94;;;6.01;90.40
9281;BME280;4679;47.966;7.958;2023-02-04T07:57:19;98708.78;;;6.02;91.17
9281;BME280;4679;47.966;7.958;2023-02-04T07:59:20;98700.88;;;6.02;91.23
9281;BME280;4679;47.966;7.958;2023-02-04T08:01:22;98715.03;;;6.00;91.32
9281;BME280;4679;47.966;7.958;2023-02-04T08:03:25;98713.56;;;5.98;90.67
9281;BME280;4679;47.966;7.958;2023-02-04T08:05:27;98721.47;;;5.98;90.30
9281;BME280;4679;47.966;7.958;2023-02-04T08:07:29;98719.81;;;5.97;91.25
9281;BME280;4679;47.966;7.958;2023-02-04T08:09:31;98725.09;;;5.97;90.52
9281;BME280;4679;47.966;7.958;2023-02-04T08:11:32;98732.00;;;5.98;90.54
9281;BME280;4679;47.966;7.958;2023-02-04T08:13:34;98728.56;;;5.97;90.92
9281;BME280;4679;47.966;7.958;2023-02-04T08:15:36;98724.28;;;5.96;90.57
9281;BME280;4679;47.966;7.958;2023-02-04T08:17:37;98730.56;;;5.95;90.31
9281;BME280;4679;47.966;7.958;2023-02-04T08:19:40;98729.53;;;5.96;91.56
9281;BME280;4679;47.966;7.958;2023-02-04T08:21:42;98722.66;;;5.95;91.17
9281;BME280;4679;47.966;7.958;2023-02-04T08:23:44;98728.38;;;5.99;91.13
9281;BME280;4679;47.966;7.958;2023-02-04T08:25:45;98727.03;;;6.03;91.22
9281;BME280;4679;47.966;7.958;2023-02-04T08:27:47;98727.69;;;6.05;90.32
9281;BME280;4679;47.966;7.958;2023-02-04T08:29:49;98732.63;;;6.08;91.04
9281;BME280;4679;47.966;7.958;2023-02-04T08:31:50;98722.72;;;6.10;90.80
9281;BME280;4679;47.966;7.958;2023-02-04T08:33:52;98727.78;;;6.12;91.04
9281;BME280;4679;47.966;7.958;2023-02-04T08:35:55;98725.81;;;6.14;90.89
9281;BME280;4679;47.966;7.958;2023-02-04T08:37:57;98725.81;;;6.14;90.39
9281;BME280;4679;47.966;7.958;2023-02-04T08:39:58;98736.19;;;6.15;90.50
9281;BME280;4679;47.966;7.958;2023-02-04T08:42:00;98731.72;;;6.16;91.37
9281;BME280;4679;47.966;7.958;2023-02-04T08:44:02;98728.75;;;6.19;90.89
9281;BME280;4679;47.966;7.958;2023-02-04T08:46:03;98732.03;;;6.21;90.68
9281;BME280;4679;47.966;7.958;2023-02-04T08:48:05;98738.13;;;6.21;90.65
9281;BME280;4679;47.966;7.958;2023-02-04T08:50:09;98731.03;;;6.22;90.56
9281;BME280;4679;47.966;7.958;2023-02-04T08:52:12;98738.94;;;6.22;90.51
9281;BME280;4679;47.966;7.958;2023-02-04T08:54:14;98740.75;;;6.21;91.62
9281;BME280;4679;47.966;7.958;2023-02-04T08:56:16;98746.03;;;6.21;91.22
9281;BME280;4679;47.966;7.958;2023-02-04T08:58:19;98747.50;;;6.24;91.07
9281;BME280;4679;47.966;7.958;2023-02-04T09:00:21;98746.31;;;6.26;90.96
9281;BME280;4679;47.966;7.958;2023-02-04T09:02:23;98747.13;;;6.27;90.76
9281;BME280;4679;47.966;7.958;2023-02-04T09:04:25;98745.97;;;6.29;91.72
9281;BME280;4679;47.966;7.958;2023-02-04T09:06:27;98753.03;;;6.29;90.66
9281;BME280;4679;47.966;7.958;2023-02-04T09:08:30;98754.84;;;6.28;90.50
9281;BME280;4679;47.966;7.958;2023-02-04T09:10:32;98759.13;;;6.29;91.27
9281;BME280;4679;47.966;7.958;2023-02-04T09:12:34;98764.25;;;6.31;91.13
9281;BME280;4679;47.966;7.958;2023-02-04T09:14:35;98769.50;;;6.31;90.95
9281;BME280;4679;47.966;7.958;2023-02-04T09:16:37;98767.88;;;6.30;91.72
9281;BME280;4679;47.966;7.958;2023-02-04T09:18:39;98773.13;;;6.30;91.53
9281;BME280;4679;47.966;7.958;2023-02-04T09:20:41;98774.13;;;6.29;90.96
9281;BME280;4679;47.966;7.958;2023-02-04T09:22:42;98772.31;;;6.29;91.14
9281;BME280;4679;47.966;7.958;2023-02-04T09:24:45;98769.50;;;6.31;91.40
9281;BME280;4679;47.966;7.958;2023-02-04T09:26:47;98786.50;;;6.28;91.84
9281;BME280;4679;47.966;7.958;2023-02-04T09:28:49;98772.31;;;6.29;92.00
9281;BME280;4679;47.966;7.958;2023-02-04T09:30:50;98775.94;;;6.28;91.66
9281;BME280;4679;47.966;7.958;2023-02-04T09:32:52;98780.22;;;6.29;91.38
9281;BME280;4679;47.966;7.958;2023-02-04T09:34:53;98776.78;;;6.29;91.16
9281;BME280;4679;47.966;7.958;2023-02-04T09:36:55;98784.50;;;6.30;91.33
9281;BME280;4679;47.966;7.958;2023-02-04T09:38:57;98785.81;;;6.34;91.38
9281;BME280;4679;47.966;7.958;2023-02-04T09:41:02;98789.25;;;6.35;91.79
9281;BME280;4679;47.966;7.958;2023-02-04T09:43:04;98793.88;;;6.33;91.06
9281;BME280;4679;47.966;7.958;2023-02-04T09:45:09;98798.00;;;6.35;91.11
9281;BME280;4679;47.966;7.958;2023-02-04T09:47:21;98801.94;;;6.40;92.10
9281;BME280;4679;47.966;7.958;2023-02-04T09:49:24;98798.09;;;6.42;91.60
9281;BME280;4679;47.966;7.958;2023-02-04T09:51:28;98802.19;;;6.45;91.64
9281;BME280;4679;47.966;7.958;2023-02-04T09:53:30;98803.84;;;6.46;91.78
9281;BME280;4679;47.966;7.958;2023-02-04T09:55:34;98805.13;;;6.50;91.58
9281;BME280;4679;47.966;7.958;2023-02-04T09:57:39;98808.44;;;6.52;90.72
9281;BME280;4679;47.966;7.958;2023-02-04T09:59:42;98810.88;;;6.53;91.65
9281;BME280;4679;47.966;7.958;2023-02-04T10:01:46;98813.06;;;6.50;91.55
9281;BME280;4679;47.966;7.958;2023-02-04T10:03:49;98812.72;;;6.53;91.79
9281;BME280;4679;47.966;7.958;2023-02-04T10:05:51;98810.72;;;6.55;91.92
9281;BME280;4679;47.966;7.958;2023-02-04T10:07:52;98820.88;;;6.58;91.36
9281;BME280;4679;47.966;7.958;2023-02-04T10:09:54;98807.91;;;6.56;91.01
9281;BME280;4679;47.966;7.958;2023-02-04T10:11:56;98811.81;;;6.60;91.75
9281;BME280;4679;47.966;7.958;2023-02-04T10:13:59;98814.28;;;6.62;91.49
9281;BME280;4679;47.966;7.958;2023-02-04T10:16:04;98815.09;;;6.62;91.77
9281;BME280;4679;47.966;7.958;2023-02-04T10:18:18;98814.28;;;6.62;91.94
9281;BME280;4679;47.966;7.958;2023-02-04T10:20:23;98809.00;;;6.62;91.61
9281;BME280;4679;47.966;7.958;2023-02-04T10:22:25;98814.44;;;6.60;91.03
9281;BME280;4679;47.966;7.958;2023-02-04T10:24:27;98809.34;;;6.59;91.98
9281;BME280;4679;47.966;7.958;2023-02-04T10:26:31;98817.25;;;6.59;91.88
9281;BME280;4679;47.966;7.958;2023-02-04T10:28:33;98816.09;;;6.61;91.51
9281;BME280;4679;47.966;7.958;2023-02-04T10:30:40;98819.19;;;6.65;91.81
9281;BME280;4679;47.966;7.958;2023-02-04T10:32:42;98819.19;;;6.65;91.42
9281;BME280;4679;47.966;7.958;2023-02-04T10:34:44;98812.59;;;6.69;91.99
9281;BME280;4679;47.966;7.958;2023-02-04T10:36:48;98814.06;;;6.72;91.61
9281;BME280;4679;47.966;7.958;2023-02-04T10:38:58;98812.69;;;6.76;91.66
9281;BME280;4679;47.966;7.958;2023-02-04T10:41:01;98803.25;;;6.81;90.92
9281;BME280;4679;47.966;7.958;2023-02-04T10:43:06;98792.16;;;6.86;91.56
9281;BME280;4679;47.966;7.958;2023-02-04T10:45:21;98793.25;;;6.91;90.93
9281;BME280;4679;47.966;7.958;2023-02-04T10:47:25;98798.66;;;6.98;91.72
9281;BME280;4679;47.966;7.958;2023-02-04T10:49:28;98789.38;;;7.02;90.87
9281;BME280;4679;47.966;7.958;2023-02-04T10:51:30;98793.09;;;7.07;90.77
9281;BME280;4679;47.966;7.958;2023-02-04T10:53:32;98792.22;;;7.15;91.38
9281;BME280;4679;47.966;7.958;2023-02-04T10:55:51;98792.13;;;7.23;91.14
9281;BME280;4679;47.966;7.958;2023-02-04T10:57:53;98802.44;;;7.33;91.44
9281;BME280;4679;47.966;7.958;2023-02-04T10:59:57;98793.97;;;7.37;90.85
9281;BME280;4679;47.966;7.958;2023-02-04T11:02:00;98795.34;;;7.48;90.85
9281;BME280;4679;47.966;7.958;2023-02-04T11:04:08;98803.97;;;7.57;91.23
9281;BME280;4679;47.966;7.958;2023-02-04T11:06:14;98799.22;;;7.67;90.92
9281;BME280;4679;47.966;7.958;2023-02-04T11:08:21;98796.06;;;7.71;90.83
9281;BME280;4679;47.966;7.958;2023-02-04T11:10:27;98797.22;;;7.69;90.40
9281;BME280;4679;47.966;7.958;2023-02-04T11:12:39;98807.91;;;7.61;90.46
9281;BME280;4679;47.966;7.958;2023-02-04T11:14:41;98807.44;;;7.43;90.74
9281;BME280;4679;47.966;7.958;2023-02-04T11:16:46;98809.16;;;7.50;90.64
9281;BME280;4679;47.966;7.958;2023-02-04T11:18:49;98807.91;;;7.61;90.75
9281;BME280;4679;47.966;7.958;2023-02-04T11:20:55;98806.50;;;7.65;90.29
9281;BME280;4679;47.966;7.958;2023-02-04T11:23:16;98809.16;;;7.65;90.46
9281;BME280;4679;47.966;7.958;2023-02-04T11:25:31;98807.50;;;7.64;90.03
9281;BME280;4679;47.966;7.958;2023-02-04T11:27:37;98796.69;;;7.73;90.64
9281;BME280;4679;47.966;7.958;2023-02-04T11:29:40;98795.69;;;7.74;90.04
9281;BME280;4679;47.966;7.958;2023-02-04T11:31:55;98803.97;;;7.71;90.43
9281;BME280;4679;47.966;7.958;2023-02-04T11:34:09;98793.94;;;7.82;90.38
9281;BME280;4679;47.966;7.958;2023-02-04T11:36:14;98802.78;;;7.89;90.53
9281;BME280;4679;47.966;7.958;2023-02-04T11:38:24;98800.00;;;7.97;89.72
9281;BME280;4679;47.966;7.958;2023-02-04T11:40:29;98801.94;;;8.03;90.02
9281;BME280;4679;47.966;7.958;2023-02-04T11:42:37;98804.94;;;8.00;89.54
9281;BME280;4679;47.966;7.958;2023-02-04T11:44:40;98807.03;;;8.04;89.48
9281;BME280;4679;47.966;7.958;2023-02-04T11:46:42;98801.81;;;8.11;89.35
9281;BME280;4679;47.966;7.958;2023-02-04T11:48:44;98799.44;;;8.16;89.20
9281;BME280;4679;47.966;7.958;2023-02-04T11:50:54;98803.53;;;8.33;89.18
9281;BME280;4679;47.966;7.958;2023-02-04T11:52:58;98810.25;;;8.36;88.75
9281;BME280;4679;47.966;7.958;2023-02-04T11:55:01;98799.09;;;8.40;88.63
9281;BME280;4679;47.966;7.958;2023-02-04T11:57:03;98793.44;;;8.43;89.11
9281;BME280;4679;47.966;7.958;2023-02-04T11:59:08;98794.06;;;8.45;89.24
9281;BME280;4679;47.966;7.958;2023-02-04T12:01:17;98800.97;;;8.40;89.18
9281;BME280;4679;47.966;7.958;2023-02-04T12:03:23;98805.69;;;8.30;89.32
9281;BME280;4679;47.966;7.958;2023-02-04T12:05:36;98803.69;;;8.32;89.14
9281;BME280;4679;47.966;7.958;2023-02-04T12:07:39;98798.56;;;8.30;88.82
9281;BME280;4679;47.966;7.958;2023-02-04T12:09:46;98797.41;;;8.33;88.86
9281;BME280;4679;47.966;7.958;2023-02-04T12:11:54;98789.81;;;8.30;88.41
9281;BME280;4679;47.966;7.958;2023-02-04T12:13:58;98793.94;;;8.32;88.75
9281;BME280;4679;47.966;7.958;2023-02-04T12:16:06;98794.03;;;8.39;88.75
9281;BME280;4679;47.966;7.958;2023-02-04T12:18:09;98797.03;;;8.36;88.65
9281;BME280;4679;47.966;7.958;2023-02-04T12:20:12;98790.47;;;8.32;88.70
9281;BME280;4679;47.966;7.958;2023-02-04T12:22:14;98793.56;;;8.35;88.72
9281;BME280;4679;47.966;7.958;2023-02-04T12:24:16;98796.47;;;8.40;88.58
9281;BME280;4679;47.966;7.958;2023-02-04T12:26:19;98803.03;;;8.44;88.37
9281;BME280;4679;47.966;7.958;2023-02-04T12:28:21;98794.72;;;8.48;88.63
9281;BME280;4679;47.966;7.958;2023-02-04T12:30:25;98802.38;;;8.42;88.13
9281;BME280;4679;47.966;7.958;2023-02-04T12:32:27;98800.88;;;8.33;88.09
9281;BME280;4679;47.966;7.958;2023-02-04T12:34:28;98805.94;;;8.50;87.82
9281;BME280;4679;47.966;7.958;2023-02-04T12:36:30;98802.00;;;8.45;87.69
9281;BME280;4679;47.966;7.958;2023-02-04T12:38:31;98802.84;;;8.46;87.68
9281;BME280;4679;47.966;7.958;2023-02-04T12:40:33;98802.66;;;8.48;87.69
9281;BME280;4679;47.966;7.958;2023-02-04T12:42:36;98801.09;;;8.53;87.39
9281;BME280;4679;47.966;7.958;2023-02-04T12:44:38;98804.56;;;8.54;87.39
9281;BME280;4679;47.966;7.958;2023-02-04T12:46:40;98798.84;;;8.78;87.11
9281;BME280;4679;47.966;7.958;2023-02-04T12:48:41;98800.56;;;8.86;86.60
9281;BME280;4679;47.966;7.958;2023-02-04T12:50:44;98802.09;;;9.01;86.98
9281;BME280;4679;47.966;7.958;2023-02-04T12:52:45;98806.16;;;8.97;86.33
9281;BME280;4679;47.966;7.958;2023-02-04T12:54:47;98805.53;;;8.95;86.28
9281;BME280;4679;47.966;7.958;2023-02-04T12:56:48;98804.72;;;8.95;86.54
9281;BME280;4679;47.966;7.958;2023-02-04T12:58:54;98798.47;;;8.81;86.47
9281;BME280;4679;47.966;7.958;2023-02-04T13:00:55;98807.63;;;8.78;86.34
9281;BME280;4679;47.966;7.958;2023-02-04T13:02:57;98806.34;;;8.74;86.67
9281;BME280;4679;47.966;7.958;2023-02-04T13:04:59;98813.47;;;8.74;86.27
9281;BME280;4679;47.966;7.958;2023-02-04T13:07:00;98816.06;;;8.67;86.64
9281;BME280;4679;47.966;7.958;2023-02-04T13:09:02;98820.28;;;8.62;86.24
9281;BME280;4679;47.966;7.958;2023-02-04T13:11:04;98822.25;;;8.53;86.50
9281;BME280;4679;47.966;7.958;2023-02-04T13:13:05;98819.97;;;8.50;86.20
9281;BME280;4679;47.966;7.958;2023-02-04T13:15:09;98818.16;;;8.51;86.60
9281;BME280;4679;47.966;7.958;2023-02-04T13:17:11;98812.03;;;8.50;85.51
9281;BME280;4679;47.966;7.958;2023-02-04T13:19:12;98811.53;;;8.40;86.09
9281;BME280;4679;47.966;7.958;2023-02-04T13:21:14;98819.66;;;8.38;85.78
9281;BME280;4679;47.966;7.958;2023-02-04T13:23:16;98829.03;;;8.26;85.96
9281;BME280;4679;47.966;7.958;2023-02-04T13:25:18;98827.06;;;8.13;85.97
9281;BME280;4679;47.966;7.958;2023-02-04T13:27:19;98827.69;;;8.16;85.87
9281;BME280;4679;47.966;7.958;2023-02-04T13:29:21;98822.69;;;8.21;85.64
9281;BME280;4679;47.966;7.958;2023-02-04T13:31:24;98823.94;;;8.25;85.71
9281;BME280;4679;47.966;7.958;2023-02-04T13:33:25;98821.09;;;8.26;85.30
9281;BME280;4679;47.966;7.958;2023-02-04T13:35:27;98819.09;;;8.28;85.34
9281;BME280;4679;47.966;7.958;2023-02-04T13:37:29;98830.66;;;8.27;85.14
9281;BME280;4679;47.966;7.958;2023-02-04T13:39:30;98820.28;;;8.26;85.15
9281;BME280;4679;47.966;7.958;2023-02-04T13:41:32;98829.44;;;8.23;85.24
9281;BME280;4679;47.966;7.958;2023-02-04T13:43:34;98830.03;;;8.25;85.38
9281;BME280;4679;47.966;7.958;2023-02-04T13:45:35;98831.31;;;8.29;85.00
9281;BME280;4679;47.966;7.958;2023-02-04T13:47:38;98831.06;;;8.24;85.16
9281;BME280;4679;47.966;7.958;2023-02-04T13:49:40;98835.13;;;8.27;85.01
9281;BME280;4679;47.966;7.958;2023-02-04T13:51:42;98833.31;;;8.27;84.85
9281;BME280;4679;47.966;7.958;2023-02-04T13:53:43;98837.19;;;8.25;85.06
9281;BME280;4679;47.966;7.958;2023-02-04T13:55:45;98836.44;;;8.16;85.08
9281;BME280;4679;47.966;7.958;2023-02-04T13:57:47;98836.81;;;8.13;85.05
9281;BME280;4679;47.966;7.958;2023-02-04T13:59:48;98828.50;;;8.16;84.68
9281;BME280;4679;47.966;7.958;2023-02-04T14:01:50;98835.06;;;8.20;85.06
9281;BME280;4679;47.966;7.958;2023-02-04T14:03:53;98827.97;;;8.21;84.71
9281;BME280;4679;47.966;7.958;2023-02-04T14:05:55;98832.25;;;8.22;84.10
9281;BME280;4679;47.966;7.958;2023-02-04T14:07:57;98832.69;;;8.25;84.60
9281;BME280;4679;47.966;7.958;2023-02-04T14:09:59;98834.53;;;8.25;84.51
9281;BME280;4679;47.966;7.958;2023-02-04T14:12:00;98846.13;;;8.24;84.64
9281;BME280;4679;47.966;7.958;2023-02-04T14:14:02;98843.75;;;8.14;84.48
9281;BME280;4679;47.966;7.958;2023-02-04T14:16:04;98852.31;;;8.16;84.59
9281;BME280;4679;47.966;7.958;2023-02-04T14:18:09;98848.03;;;8.15;84.57
9281;BME280;4679;47.966;7.958;2023-02-04T14:20:12;98860.25;;;8.16;84.56
9281;BME280;4679;47.966;7.958;2023-02-04T14:22:14;98860.59;;;8.13;84.29
9281;BME280;4679;47.966;7.958;2023-02-04T14:24:15;98869.72;;;8.10;84.14
9281;BME280;4679;47.966;7.958;2023-02-04T14:26:17;98867.91;;;8.11;84.54
9281;BME280;4679;47.966;7.958;2023-02-04T14:28:19;98871.53;;;8.10;84.04
9281;BME280;4679;47.966;7.958;2023-02-04T14:30:22;98877.66;;;8.10;84.29
9281;BME280;4679;47.966;7.958;2023-02-04T14:32:24;98873.75;;;8.06;84.43
9281;BME280;4679;47.966;7.958;2023-02-04T14:34:25;98876.59;;;8.05;84.28
9281;BME280;4679;47.966;7.958;2023-02-04T14:36:29;98870.28;;;8.06;84.66
9281;BME280;4679;47.966;7.958;2023-02-04T14:38:30;98874.03;;;7.97;84.12
9281;BME280;4679;47.966;7.958;2023-02-04T14:40:33;98869.94;;;7.94;84.56
9281;BME280;4679;47.966;7.958;2023-02-04T14:42:35;98853.81;;;7.89;84.29
9281;BME280;4679;47.966;7.958;2023-02-04T14:44:37;98868.66;;;7.90;84.51
9281;BME280;4679;47.966;7.958;2023-02-04T14:46:39;98865.84;;;7.92;84.55
9281;BME280;4679;47.966;7.958;2023-02-04T14:48:43;98866.28;;;7.95;84.16
9281;BME280;4679;47.966;7.958;2023-02-04T14:50:45;98870.19;;;7.99;84.10
9281;BME280;4679;47.966;7.958;2023-02-04T14:52:48;98867.09;;;7.96;84.60
9281;BME280;4679;47.966;7.958;2023-02-04T14:54:50;98875.03;;;7.96;84.28
9281;BME280;4679;47.966;7.958;2023-02-04T14:56:52;98876.66;;;7.97;84.31
9281;BME280;4679;47.966;7.958;2023-02-04T14:58:53;98877.47;;;7.97;84.51
9281;BME280;4679;47.966;7.958;2023-02-04T15:00:55;98875.59;;;7.91;84.34
9281;BME280;4679;47.966;7.958;2023-02-04T15:02:57;98883.94;;;7.95;83.88
9281;BME280;4679;47.966;7.958;2023-02-04T15:04:58;98878.31;;;7.98;83.75
9281;BME280;4679;47.966;7.958;2023-02-04T15:07:00;98879.75;;;8.00;84.03
9281;BME280;4679;47.966;7.958;2023-02-04T15:09:03;98876.94;;;8.02;84.34
9281;BME280;4679;47.966;7.958;2023-02-04T15:11:05;98875.47;;;7.99;83.95
9281;BME280;4679;47.966;7.958;2023-02-04T15:13:07;98878.47;;;7.96;84.30
9281;BME280;4679;47.966;7.958;2023-02-04T15:15:08;98872.78;;;7.93;83.82
9281;BME280;4679;47.966;7.958;2023-02-04T15:17:10;98875.78;;;7.90;83.60
9281;BME280;4679;47.966;7.958;2023-02-04T15:19:12;98884.06;;;7.87;83.75
9281;BME280;4679;47.966;7.958;2023-02-04T15:21:14;98873.78;;;7.77;83.96
9281;BME280;4679;47.966;7.958;2023-02-04T15:23:16;98876.94;;;7.72;84.25
9281;BME280;4679;47.966;7.958;2023-02-04T15:25:20;98880.94;;;7.68;83.99
9281;BME280;4679;47.966;7.958;2023-02-04T15:27:21;98882.94;;;7.66;84.35
9281;BME280;4679;47.966;7.958;2023-02-04T15:29:23;98877.03;;;7.64;84.06
9281;BME280;4679;47.966;7.958;2023-02-04T15:31:25;98880.06;;;7.61;84.72
9281;BME280;4679;47.966;7.958;2023-02-04T15:33:27;98876.75;;;7.59;83.99
9281;BME280;4679;47.966;7.958;2023-02-04T15:35:28;98877.13;;;7.56;84.76
9281;BME280;4679;47.966;7.958;2023-02-04T15:37:30;98880.94;;;7.54;84.03
9281;BME280;4679;47.966;7.958;2023-02-04T15:39:32;98880.47;;;7.50;84.19
9281;BME280;4679;47.966;7.958;2023-02-04T15:41:35;98883.66;;;7.46;84.79
9281;BME280;4679;47.966;7.958;2023-02-04T15:43:36;98889.50;;;7.41;84.08
9281;BME280;4679;47.966;7.958;2023-02-04T15:45:38;98882.91;;;7.37;84.40
9281;BME280;4679;47.966;7.958;2023-02-04T15:47:43;98889.56;;;7.33;84.38
9281;BME280;4679;47.966;7.958;2023-02-04T15:49:45;98884.66;;;7.30;84.94
9281;BME280;4679;47.966;7.958;2023-02-04T15:51:46;98888.63;;;7.26;85.09
9281;BME280;4679;47.966;7.958;2023-02-04T15:53:48;98892.44;;;7.23;84.54
9281;BME280;4679;47.966;7.958;2023-02-04T15:55:50;98892.16;;;7.18;84.62
9281;BME280;4679;47.966;7.958;2023-02-04T15:57:53;98886.78;;;7.12;85.21
9281;BME280;4679;47.966;7.958;2023-02-04T15:59:54;98883.66;;;7.08;84.51
9281;BME280;4679;47.966;7.958;2023-02-04T16:01:57;98901.06;;;7.02;85.13
9281;BME280;4679;47.966;7.958;2023-02-04T16:03:58;98897.63;;;6.94;84.54
9281;BME280;4679;47.966;7.958;2023-02-04T16:06:00;98897.31;;;6.89;84.95
9281;BME280;4679;47.966;7.958;2023-02-04T16:08:02;98899.34;;;6.87;85.07
9281;BME280;4679;47.966;7.958;2023-02-04T16:10:04;98895.88;;;6.86;85.31
9281;BME280;4679;47.966;7.958;2023-02-04T16:12:06;98907.13;;;6.80;84.46
9281;BME280;4679;47.966;7.958;2023-02-04T16:14:09;98897.28;;;6.74;85.38
9281;BME280;4679;47.966;7.958;2023-02-04T16:16:10;98897.66;;;6.71;84.47
9281;BME280;4679;47.966;7.958;2023-02-04T16:18:12;98896.66;;;6.72;85.44
9281;BME280;4679;47.966;7.958;2023-02-04T16:20:14;98895.53;;;6.66;85.07
9281;BME280;4679;47.966;7.958;2023-02-04T16:22:16;98900.47;;;6.61;85.31
9281;BME280;4679;47.966;7.958;2023-02-04T16:24:18;98902.84;;;6.56;84.90
9281;BME280;4679;47.966;7.958;2023-02-04T16:26:20;98907.97;;;6.50;84.92
9281;BME280;4679;47.966;7.958;2023-02-04T16:28:22;98903.94;;;6.39;85.71
9281;BME280;4679;47.966;7.958;2023-02-04T16:30:25;98908.09;;;6.25;85.47
9281;BME280;4679;47.966;7.958;2023-02-04T16:32:27;98904.19;;;6.13;86.17
9281;BME280;4679;47.966;7.958;2023-02-04T16:34:29;98906.16;;;6.11;85.46
9281;BME280;4679;47.966;7.958;2023-02-04T16:36:30;98908.50;;;6.06;85.94
9281;BME280;4679;47.966;7.958;2023-02-04T16:38:33;98918.06;;;5.99;85.30
9281;BME280;4679;47.966;7.958;2023-02-04T16:40:35;98919.41;;;5.87;85.99
9281;BME280;4679;47.966;7.958;2023-02-04T16:42:37;98919.91;;;5.82;85.54
9281;BME280;4679;47.966;7.958;2023-02-04T16:44:39;98915.31;;;5.76;85.89
9281;BME280;4679;47.966;7.958;2023-02-04T16:46:42;98918.13;;;5.75;86.46
9281;BME280;4679;47.966;7.958;2023-02-04T16:48:43;98930.31;;;5.68;86.03
9281;BME280;4679;47.966;7.958;2023-02-04T16:50:45;98935.94;;;5.64;85.93
9281;BME280;4679;47.966;7.958;2023-02-04T16:52:47;98933.78;;;5.60;86.03
9281;BME280;4679;47.966;7.958;2023-02-04T16:54:48;98934.13;;;5.49;87.09
9281;BME280;4679;47.966;7.958;2023-02-04T16:56:50;98932.31;;;5.41;86.72
9281;BME280;4679;47.966;7.958;2023-02-04T16:58:54;98938.72;;;5.39;86.19
9281;BME280;4679;47.966;7.958;2023-02-04T17:00:56;98936.94;;;5.31;87.13
9281;BME280;4679;47.966;7.958;2023-02-04T17:03:00;98940.06;;;5.26;86.77
9281;BME280;4679;47.966;7.958;2023-02-04T17:05:02;98936.59;;;5.26;87.28
9281;BME280;4679;47.966;7.958;2023-02-04T17:07:03;98937.09;;;5.21;87.23
9281;BME280;4679;47.966;7.958;2023-02-04T17:09:05;98938.75;;;5.14;86.93
9281;BME280;4679;47.966;7.958;2023-02-04T17:11:08;98941.34;;;5.06;86.69
9281;BME280;4679;47.966;7.958;2023-02-04T17:13:27;98933.97;;;5.02;86.60
9281;BME280;4679;47.966;7.958;2023-02-04T17:15:29;98947.13;;;5.02;86.93
9281;BME280;4679;47.966;7.958;2023-02-04T17:17:30;98950.41;;;4.95;86.99
9281;BME280;4679;47.966;7.958;2023-02-04T17:19:33;98966.50;;;4.92;86.97
9281;BME280;4679;47.966;7.958;2023-02-04T17:21:35;98960.25;;;4.85;86.86
9281;BME280;4679;47.966;7.958;2023-02-04T17:23:38;98962.03;;;4.77;86.94
9281;BME280;4679;47.966;7.958;2023-02-04T17:25:40;98963.16;;;4.74;87.15
9281;BME280;4679;47.966;7.958;2023-02-04T17:27:42;98966.81;;;4.73;87.28
9281;BME280;4679;47.966;7.958;2023-02-04T17:29:43;98969.75;;;4.70;87.87
9281;BME280;4679;47.966;7.958;2023-02-04T17:31:45;98960.69;;;4.65;87.42
9281;BME280;4679;47.966;7.958;2023-02-04T17:33:46;98967.75;;;4.64;87.59
9281;BME280;4679;47.966;7.958;2023-02-04T17:35:49;98969.19;;;4.58;87.23
9281;BME280;4679;47.966;7.958;2023-02-04T17:37:51;98975.47;;;4.57;87.88
9281;BME280;4679;47.966;7.958;2023-02-04T17:39:53;98971.19;;;4.56;87.05
9281;BME280;4679;47.966;7.958;2023-02-04T17:41:55;98968.72;;;4.55;87.98
9281;BME280;4679;47.966;7.958;2023-02-04T17:43:56;98970.16;;;4.49;87.12
9281;BME280;4679;47.966;7.958;2023-02-04T17:45:59;98966.72;;;4.49;87.45
9281;BME280;4679;47.966;7.958;2023-02-04T17:48:01;98968.22;;;4.51;87.76
9281;BME280;4679;47.966;7.958;2023-02-04T17:50:05;98969.81;;;4.44;87.67
9281;BME280;4679;47.966;7.958;2023-02-04T17:52:08;98973.41;;;4.43;87.82
9281;BME280;4679;47.966;7.958;2023-02-04T17:54:11;98975.88;;;4.45;87.70
9281;BME280;4679;47.966;7.958;2023-02-04T17:56:14;98971.97;;;4.41;87.24
9281;BME280;4679;47.966;7.958;2023-02-04T17:58:20;98971.28;;;4.39;87.79
9281;BME280;4679;47.966;7.958;2023-02-04T18:00:24;98983.75;;;4.37;88.00
9281;BME280;4679;47.966;7.958;2023-02-04T18:02:28;98977.84;;;4.35;87.51
9281;BME280;4679;47.966;7.958;2023-02-04T18:04:30;98981.28;;;4.35;88.06
9281;BME280;4679;47.966;7.958;2023-02-04T18:06:32;98983.88;;;4.27;87.99
9281;BME280;4679;47.966;7.958;2023-02-04T18:08:37;98985.69;;;4.27;87.73
9281;BME280;4679;47.966;7.958;2023-02-04T18:10:41;98984.88;;;4.26;87.85
9281;BME280;4679;47.966;7.958;2023-02-04T18:12:43;98996.19;;;4.27;88.19
9281;BME280;4679;47.966;7.958;2023-02-04T18:14:45;99001.09;;;4.21;87.90
9281;BME280;4679;47.966;7.958;2023-02-04T18:16:47;98995.16;;;4.19;87.85
9281;BME280;4679;47.966;7.958;2023-02-04T18:18:50;98999.75;;;4.17;87.95
9281;BME280;4679;47.966;7.958;2023-02-04T18:20:57;98994.16;;;4.12;88.06
9281;BME280;4679;47.966;7.958;2023-02-04T18:23:00;98997.25;;;4.08;87.94
9281;BME280;4679;47.966;7.958;2023-02-04T18:25:12;98999.34;;;4.04;88.30
9281;BME280;4679;47.966;7.958;2023-02-04T18:27:19;99000.03;;;4.06;88.23
9281;BME280;4679;47.966;7.958;2023-02-04T18:29:31;98993.78;;;4.07;88.29
9281;BME280;4679;47.966;7.958;2023-02-04T18:31:35;98998.06;;;4.08;88.07
9281;BME280;4679;47.966;7.958;2023-02-04T18:33:37;98998.06;;;4.08;87.97
9281;BME280;4679;47.966;7.958;2023-02-04T18:35:41;98990.34;;;4.07;88.04
9281;BME280;4679;47.966;7.958;2023-02-04T18:37:45;98985.56;;;4.02;88.13
9281;BME280;4679;47.966;7.958;2023-02-04T18:39:48;98989.63;;;3.97;88.23
9281;BME280;4679;47.966;7.958;2023-02-04T18:41:51;98989.78;;;3.95;88.18
9281;BME280;4679;47.966;7.958;2023-02-04T18:43:58;98990.91;;;3.93;88.38
9281;BME280;4679;47.966;7.958;2023-02-04T18:46:14;98999.09;;;3.89;88.38
9281;BME280;4679;47.966;7.958;2023-02-04T18:48:55;98994.81;;;3.88;88.30
9281;BME280;4679;47.966;7.958;2023-02-04T18:50:59;98995.81;;;3.87;88.05
9281;BME280;4679;47.966;7.958;2023-02-04T18:53:16;99003.00;;;3.85;88.10
9281;BME280;4679;47.966;7.958;2023-02-04T18:55:23;98997.22;;;3.82;88.26
9281;BME280;4679;47.966;7.958;2023-02-04T18:57:35;99000.78;;;3.73;88.50
9281;BME280;4679;47.966;7.958;2023-02-04T18:59:38;98994.19;;;3.69;88.76
9281;BME280;4679;47.966;7.958;2023-02-04T19:01:40;99008.28;;;3.68;88.73
9281;BME280;4679;47.966;7.958;2023-02-04T19:03:47;99002.41;;;3.66;88.52
9281;BME280;4679;47.966;7.958;2023-02-04T19:05:50;98999.25;;;3.62;88.28